sensor_id;sensor_type;location;lat;lon;timestamp;P1;durP1;ratioP1;P2;durP2;ratioP2
66272;SDS011;58450;52.150;4.466;2023-03-03T00:00:51;18.42;;;9.15;;
66272;SDS011;58450;52.150;4.466;2023-03-03T00:03:19;16.83;;;8.68;;
66272;SDS011;58450;52.150;4.466;2023-03-03T00:05:49;16.67;;;9.05;;
66272;SDS011;58450;52.150;4.466;2023-03-03T00:08:18;16.85;;;9.05;;
66272;SDS011;58450;52.150;4.466;2023-03-03T00:10:47;19.17;;;8.80;;
66272;SDS011;58450;52.150;4.466;2023-03-03T00:13:16;15.98;;;7.80;;
66272;SDS011;58450;52.150;4.466;2023-03-03T00:15:48;16.48;;;8.05;;
66272;SDS011;58450;52.150;4.466;2023-03-03T00:18:20;13.55;;;7.68;;
66272;SDS011;58450;52.150;4.466;2023-03-03T00:20:55;14.25;;;7.35;;
66272;SDS011;58450;52.150;4.466;2023-03-03T00:23:28;14.07;;;6.88;;
66272;SDS011;58450;52.150;4.466;2023-03-03T00:26:01;16.67;;;7.70;;
66272;SDS011;58450;52.150;4.466;2023-03-03T00:28:43;15.20;;;7.60;;
66272;SDS011;58450;52.150;4.466;2023-03-03T00:31:15;14.80;;;7.25;;
66272;SDS011;58450;52.150;4.466;2023-03-03T00:33:47;13.40;;;7.05;;
66272;SDS011;58450;52.150;4.466;2023-03-03T00:36:29;13.68;;;7.32;;
66272;SDS011;58450;52.150;4.466;2023-03-03T00:39:10;14.77;;;6.78;;
66272;SDS011;58450;52.150;4.466;2023-03-03T00:41:51;12.23;;;6.20;;
66272;SDS011;58450;52.150;4.466;2023-03-03T00:44:28;13.45;;;6.82;;
66272;SDS011;58450;52.150;4.466;2023-03-03T00:47:26;12.48;;;6.53;;
66272;SDS011;58450;52.150;4.466;2023-03-03T00:50:13;14.68;;;7.30;;
66272;SDS011;58450;52.150;4.466;2023-03-03T00:52:56;13.40;;;6.75;;
66272;SDS011;58450;52.150;4.466;2023-03-03T00:55:29;11.63;;;6.63;;
66272;SDS011;58450;52.150;4.466;2023-03-03T00:57:58;13.18;;;6.40;;
66272;SDS011;58450;52.150;4.466;2023-03-03T01:00:25;11.43;;;6.05;;
66272;SDS011;58450;52.150;4.466;2023-03-03T01:02:54;14.90;;;6.78;;
66272;SDS011;58450;52.150;4.466;2023-03-03T01:05:22;12.25;;;6.63;;
66272;SDS011;58450;52.150;4.466;2023-03-03T01:07:49;12.57;;;6.10;;
66272;SDS011;58450;52.150;4.466;2023-03-03T01:10:17;11.20;;;5.88;;
66272;SDS011;58450;52.150;4.466;2023-03-03T01:12:44;11.80;;;6.38;;
66272;SDS011;58450;52.150;4.466;2023-03-03T01:15:13;12.10;;;6.30;;
66272;SDS011;58450;52.150;4.466;2023-03-03T01:17:41;11.88;;;6.13;;
66272;SDS011;58450;52.150;4.466;2023-03-03T01:20:11;13.73;;;6.85;;
66272;SDS011;58450;52.150;4.466;2023-03-03T01:22:41;10.95;;;5.75;;
66272;SDS011;58450;52.150;4.466;2023-03-03T01:25:09;12.02;;;6.30;;
66272;SDS011;58450;52.150;4.466;2023-03-03T01:27:36;11.32;;;6.53;;
66272;SDS011;58450;52.150;4.466;2023-03-03T01:30:05;12.75;;;6.13;;
66272;SDS011;58450;52.150;4.466;2023-03-03T01:32:34;10.98;;;6.10;;
66272;SDS011;58450;52.150;4.466;2023-03-03T01:35:02;14.93;;;6.55;;
66272;SDS011;58450;52.150;4.466;2023-03-03T01:37:32;13.00;;;6.68;;
66272;SDS011;58450;52.150;4.466;2023-03-03T01:40:00;12.30;;;6.50;;
66272;SDS011;58450;52.150;4.466;2023-03-03T01:42:28;11.50;;;6.15;;
66272;SDS011;58450;52.150;4.466;2023-03-03T01:45:12;11.70;;;6.43;;
66272;SDS011;58450;52.150;4.466;2023-03-03T01:47:46;11.98;;;6.55;;
66272;SDS011;58450;52.150;4.466;2023-03-03T01:50:24;10.00;;;5.90;;
66272;SDS011;58450;52.150;4.466;2023-03-03T01:53:04;13.77;;;6.47;;
66272;SDS011;58450;52.150;4.466;2023-03-03T01:55:38;14.88;;;7.28;;
66272;SDS011;58450;52.150;4.466;2023-03-03T01:58:10;12.85;;;6.25;;
66272;SDS011;58450;52.150;4.466;2023-03-03T02:00:49;11.82;;;6.22;;
66272;SDS011;58450;52.150;4.466;2023-03-03T02:03:20;12.85;;;6.70;;
66272;SDS011;58450;52.150;4.466;2023-03-03T02:05:50;12.60;;;6.80;;
66272;SDS011;58450;52.150;4.466;2023-03-03T02:08:26;14.18;;;6.85;;
66272;SDS011;58450;52.150;4.466;2023-03-03T02:11:00;13.50;;;6.68;;
66272;SDS011;58450;52.150;4.466;2023-03-03T02:13:30;13.35;;;6.57;;
66272;SDS011;58450;52.150;4.466;2023-03-03T02:15:57;11.93;;;6.78;;
66272;SDS011;58450;52.150;4.466;2023-03-03T02:18:25;14.73;;;7.10;;
66272;SDS011;58450;52.150;4.466;2023-03-03T02:20:56;11.25;;;6.57;;
66272;SDS011;58450;52.150;4.466;2023-03-03T02:23:34;11.95;;;6.38;;
66272;SDS011;58450;52.150;4.466;2023-03-03T02:26:12;11.40;;;6.18;;
66272;SDS011;58450;52.150;4.466;2023-03-03T02:28:43;12.07;;;6.25;;
66272;SDS011;58450;52.150;4.466;2023-03-03T02:31:12;11.27;;;6.05;;
66272;SDS011;58450;52.150;4.466;2023-03-03T02:33:44;10.90;;;5.95;;
66272;SDS011;58450;52.150;4.466;2023-03-03T02:36:14;11.27;;;6.18;;
66272;SDS011;58450;52.150;4.466;2023-03-03T02:38:46;11.73;;;5.68;;
66272;SDS011;58450;52.150;4.466;2023-03-03T02:41:27;9.73;;;5.43;;
66272;SDS011;58450;52.150;4.466;2023-03-03T02:44:01;9.43;;;5.63;;
66272;SDS011;58450;52.150;4.466;2023-03-03T02:46:33;13.60;;;6.25;;
66272;SDS011;58450;52.150;4.466;2023-03-03T02:49:03;16.08;;;5.72;;
66272;SDS011;58450;52.150;4.466;2023-03-03T02:51:33;10.48;;;5.65;;
66272;SDS011;58450;52.150;4.466;2023-03-03T02:54:02;9.35;;;4.93;;
66272;SDS011;58450;52.150;4.466;2023-03-03T02:56:32;10.35;;;5.47;;
66272;SDS011;58450;52.150;4.466;2023-03-03T02:59:00;12.10;;;5.53;;
66272;SDS011;58450;52.150;4.466;2023-03-03T03:01:27;12.30;;;5.50;;
66272;SDS011;58450;52.150;4.466;2023-03-03T03:03:56;10.68;;;4.93;;
66272;SDS011;58450;52.150;4.466;2023-03-03T03:06:24;10.98;;;4.90;;
66272;SDS011;58450;52.150;4.466;2023-03-03T03:08:52;8.55;;;4.30;;
66272;SDS011;58450;52.150;4.466;2023-03-03T03:11:20;9.05;;;4.75;;
66272;SDS011;58450;52.150;4.466;2023-03-03T03:13:49;8.80;;;4.50;;
66272;SDS011;58450;52.150;4.466;2023-03-03T03:16:16;9.57;;;4.50;;
66272;SDS011;58450;52.150;4.466;2023-03-03T03:18:44;9.48;;;4.80;;
66272;SDS011;58450;52.150;4.466;2023-03-03T03:21:12;9.73;;;4.97;;
66272;SDS011;58450;52.150;4.466;2023-03-03T03:23:39;8.63;;;4.63;;
66272;SDS011;58450;52.150;4.466;2023-03-03T03:26:07;10.00;;;4.68;;
66272;SDS011;58450;52.150;4.466;2023-03-03T03:28:35;9.65;;;4.22;;
66272;SDS011;58450;52.150;4.466;2023-03-03T03:31:04;10.95;;;4.65;;
66272;SDS011;58450;52.150;4.466;2023-03-03T03:33:33;9.80;;;4.45;;
66272;SDS011;58450;52.150;4.466;2023-03-03T03:36:02;8.02;;;4.20;;
66272;SDS011;58450;52.150;4.466;2023-03-03T03:38:31;8.68;;;4.57;;
66272;SDS011;58450;52.150;4.466;2023-03-03T03:41:01;8.40;;;4.22;;
66272;SDS011;58450;52.150;4.466;2023-03-03T03:43:31;9.98;;;4.28;;
66272;SDS011;58450;52.150;4.466;2023-03-03T03:45:59;9.98;;;4.60;;
66272;SDS011;58450;52.150;4.466;2023-03-03T03:48:28;10.88;;;4.55;;
66272;SDS011;58450;52.150;4.466;2023-03-03T03:50:55;8.52;;;3.90;;
66272;SDS011;58450;52.150;4.466;2023-03-03T03:53:23;7.47;;;3.83;;
66272;SDS011;58450;52.150;4.466;2023-03-03T03:55:50;7.43;;;3.60;;
66272;SDS011;58450;52.150;4.466;2023-03-03T03:58:18;8.60;;;4.20;;
66272;SDS011;58450;52.150;4.466;2023-03-03T04:00:46;8.38;;;3.95;;
66272;SDS011;58450;52.150;4.466;2023-03-03T04:03:13;9.10;;;3.83;;
66272;SDS011;58450;52.150;4.466;2023-03-03T04:05:42;6.72;;;3.53;;
66272;SDS011;58450;52.150;4.466;2023-03-03T04:08:10;7.68;;;3.60;;
66272;SDS011;58450;52.150;4.466;2023-03-03T04:10:38;8.35;;;3.95;;
66272;SDS011;58450;52.150;4.466;2023-03-03T04:13:05;7.53;;;4.00;;
66272;SDS011;58450;52.150;4.466;2023-03-03T04:15:33;7.43;;;3.78;;
66272;SDS011;58450;52.150;4.466;2023-03-03T04:18:01;7.47;;;3.95;;
66272;SDS011;58450;52.150;4.466;2023-03-03T04:20:30;7.63;;;3.75;;
66272;SDS011;58450;52.150;4.466;2023-03-03T04:22:59;6.47;;;3.75;;
66272;SDS011;58450;52.150;4.466;2023-03-03T04:25:26;7.47;;;3.80;;
66272;SDS011;58450;52.150;4.466;2023-03-03T04:27:54;6.60;;;3.78;;
66272;SDS011;58450;52.150;4.466;2023-03-03T04:30:21;7.32;;;3.80;;
66272;SDS011;58450;52.150;4.466;2023-03-03T04:32:49;7.18;;;4.18;;
66272;SDS011;58450;52.150;4.466;2023-03-03T04:35:17;8.88;;;4.07;;
66272;SDS011;58450;52.150;4.466;2023-03-03T04:37:45;8.27;;;3.88;;
66272;SDS011;58450;52.150;4.466;2023-03-03T04:40:14;9.35;;;4.15;;
66272;SDS011;58450;52.150;4.466;2023-03-03T04:42:43;8.63;;;3.90;;
66272;SDS011;58450;52.150;4.466;2023-03-03T04:45:10;8.73;;;3.70;;
66272;SDS011;58450;52.150;4.466;2023-03-03T04:47:37;10.35;;;4.30;;
66272;SDS011;58450;52.150;4.466;2023-03-03T04:50:06;7.75;;;4.13;;
66272;SDS011;58450;52.150;4.466;2023-03-03T04:52:36;7.28;;;4.05;;
66272;SDS011;58450;52.150;4.466;2023-03-03T04:55:03;7.35;;;4.55;;
66272;SDS011;58450;52.150;4.466;2023-03-03T04:57:33;9.13;;;4.60;;
66272;SDS011;58450;52.150;4.466;2023-03-03T05:00:00;8.55;;;5.18;;
66272;SDS011;58450;52.150;4.466;2023-03-03T05:02:29;9.43;;;5.63;;
66272;SDS011;58450;52.150;4.466;2023-03-03T05:04:56;9.82;;;5.35;;
66272;SDS011;58450;52.150;4.466;2023-03-03T05:07:24;10.77;;;6.05;;
66272;SDS011;58450;52.150;4.466;2023-03-03T05:09:51;12.68;;;6.93;;
66272;SDS011;58450;52.150;4.466;2023-03-03T05:12:18;12.02;;;6.47;;
66272;SDS011;58450;52.150;4.466;2023-03-03T05:14:47;9.95;;;5.75;;
66272;SDS011;58450;52.150;4.466;2023-03-03T05:17:15;11.60;;;6.82;;
66272;SDS011;58450;52.150;4.466;2023-03-03T05:19:42;15.02;;;7.25;;
66272;SDS011;58450;52.150;4.466;2023-03-03T05:22:10;11.68;;;7.03;;
66272;SDS011;58450;52.150;4.466;2023-03-03T05:24:37;12.38;;;6.82;;
66272;SDS011;58450;52.150;4.466;2023-03-03T05:27:07;13.05;;;7.18;;
66272;SDS011;58450;52.150;4.466;2023-03-03T05:29:36;13.50;;;7.25;;
66272;SDS011;58450;52.150;4.466;2023-03-03T05:32:05;12.30;;;7.05;;
66272;SDS011;58450;52.150;4.466;2023-03-03T05:34:33;14.98;;;7.55;;
66272;SDS011;58450;52.150;4.466;2023-03-03T05:37:00;12.30;;;7.05;;
66272;SDS011;58450;52.150;4.466;2023-03-03T05:39:31;13.27;;;7.38;;
66272;SDS011;58450;52.150;4.466;2023-03-03T05:41:59;16.17;;;7.32;;
66272;SDS011;58450;52.150;4.466;2023-03-03T05:44:26;14.25;;;8.07;;
66272;SDS011;58450;52.150;4.466;2023-03-03T05:46:54;13.90;;;7.57;;
66272;SDS011;58450;52.150;4.466;2023-03-03T05:49:25;15.55;;;8.27;;
66272;SDS011;58450;52.150;4.466;2023-03-03T05:51:52;13.50;;;8.38;;
66272;SDS011;58450;52.150;4.466;2023-03-03T05:54:20;15.15;;;8.65;;
66272;SDS011;58450;52.150;4.466;2023-03-03T05:56:47;14.40;;;7.70;;
66272;SDS011;58450;52.150;4.466;2023-03-03T05:59:15;16.83;;;9.10;;
66272;SDS011;58450;52.150;4.466;2023-03-03T06:01:42;15.93;;;8.63;;
66272;SDS011;58450;52.150;4.466;2023-03-03T06:04:09;14.88;;;8.27;;
66272;SDS011;58450;52.150;4.466;2023-03-03T06:06:38;14.02;;;8.10;;
66272;SDS011;58450;52.150;4.466;2023-03-03T06:09:06;14.52;;;8.50;;
66272;SDS011;58450;52.150;4.466;2023-03-03T06:11:33;15.05;;;8.73;;
66272;SDS011;58450;52.150;4.466;2023-03-03T06:14:02;14.70;;;8.70;;
66272;SDS011;58450;52.150;4.466;2023-03-03T06:16:29;14.77;;;8.93;;
66272;SDS011;58450;52.150;4.466;2023-03-03T06:18:57;16.17;;;8.57;;
66272;SDS011;58450;52.150;4.466;2023-03-03T06:21:24;15.18;;;9.23;;
66272;SDS011;58450;52.150;4.466;2023-03-03T06:23:53;16.33;;;9.10;;
66272;SDS011;58450;52.150;4.466;2023-03-03T06:26:21;16.02;;;8.70;;
66272;SDS011;58450;52.150;4.466;2023-03-03T06:28:48;15.27;;;9.23;;
66272;SDS011;58450;52.150;4.466;2023-03-03T06:31:18;16.23;;;9.23;;
66272;SDS011;58450;52.150;4.466;2023-03-03T06:33:46;16.45;;;8.80;;
66272;SDS011;58450;52.150;4.466;2023-03-03T06:36:13;15.60;;;9.15;;
66272;SDS011;58450;52.150;4.466;2023-03-03T06:38:41;14.02;;;8.98;;
66272;SDS011;58450;52.150;4.466;2023-03-03T06:41:10;14.85;;;8.95;;
66272;SDS011;58450;52.150;4.466;2023-03-03T06:43:38;14.80;;;8.65;;
66272;SDS011;58450;52.150;4.466;2023-03-03T06:46:06;14.60;;;8.68;;
66272;SDS011;58450;52.150;4.466;2023-03-03T06:48:33;14.23;;;8.38;;
66272;SDS011;58450;52.150;4.466;2023-03-03T06:51:02;15.60;;;7.93;;
66272;SDS011;58450;52.150;4.466;2023-03-03T06:53:45;15.95;;;8.50;;
66272;SDS011;58450;52.150;4.466;2023-03-03T06:56:15;14.27;;;8.30;;
66272;SDS011;58450;52.150;4.466;2023-03-03T06:58:44;15.30;;;8.50;;
66272;SDS011;58450;52.150;4.466;2023-03-03T07:01:12;15.40;;;8.85;;
66272;SDS011;58450;52.150;4.466;2023-03-03T07:03:43;13.95;;;8.07;;
66272;SDS011;58450;52.150;4.466;2023-03-03T07:06:15;13.43;;;7.45;;
66272;SDS011;58450;52.150;4.466;2023-03-03T07:08:49;14.73;;;8.60;;
66272;SDS011;58450;52.150;4.466;2023-03-03T07:11:20;14.82;;;8.52;;
66272;SDS011;58450;52.150;4.466;2023-03-03T07:13:50;14.73;;;8.60;;
66272;SDS011;58450;52.150;4.466;2023-03-03T07:16:22;15.18;;;8.85;;
66272;SDS011;58450;52.150;4.466;2023-03-03T07:18:54;13.88;;;8.25;;
66272;SDS011;58450;52.150;4.466;2023-03-03T07:21:29;12.10;;;7.38;;
66272;SDS011;58450;52.150;4.466;2023-03-03T07:24:00;14.02;;;7.70;;
66272;SDS011;58450;52.150;4.466;2023-03-03T07:26:49;13.05;;;7.88;;
66272;SDS011;58450;52.150;4.466;2023-03-03T07:29:18;14.65;;;8.32;;
66272;SDS011;58450;52.150;4.466;2023-03-03T07:31:52;14.90;;;8.55;;
66272;SDS011;58450;52.150;4.466;2023-03-03T07:34:22;14.65;;;8.95;;
66272;SDS011;58450;52.150;4.466;2023-03-03T07:39:29;14.32;;;7.78;;
66272;SDS011;58450;52.150;4.466;2023-03-03T07:42:06;14.52;;;8.70;;
66272;SDS011;58450;52.150;4.466;2023-03-03T07:44:46;13.73;;;8.27;;
66272;SDS011;58450;52.150;4.466;2023-03-03T07:47:18;15.18;;;8.48;;
66272;SDS011;58450;52.150;4.466;2023-03-03T07:49:50;16.73;;;9.40;;
66272;SDS011;58450;52.150;4.466;2023-03-03T07:52:28;15.38;;;8.82;;
66272;SDS011;58450;52.150;4.466;2023-03-03T07:57:53;17.65;;;8.73;;
66272;SDS011;58450;52.150;4.466;2023-03-03T08:03:49;18.73;;;9.63;;
66272;SDS011;58450;52.150;4.466;2023-03-03T08:06:25;16.35;;;9.20;;
66272;SDS011;58450;52.150;4.466;2023-03-03T08:09:30;19.05;;;8.88;;
66272;SDS011;58450;52.150;4.466;2023-03-03T08:12:16;16.27;;;8.80;;
66272;SDS011;58450;52.150;4.466;2023-03-03T08:17:57;17.10;;;9.75;;
66272;SDS011;58450;52.150;4.466;2023-03-03T08:20:38;18.60;;;10.00;;
66272;SDS011;58450;52.150;4.466;2023-03-03T08:23:12;19.13;;;9.77;;
66272;SDS011;58450;52.150;4.466;2023-03-03T08:25:42;18.95;;;9.13;;
66272;SDS011;58450;52.150;4.466;2023-03-03T08:28:11;18.20;;;8.93;;
66272;SDS011;58450;52.150;4.466;2023-03-03T08:30:40;16.52;;;9.00;;
66272;SDS011;58450;52.150;4.466;2023-03-03T08:33:09;14.48;;;8.10;;
66272;SDS011;58450;52.150;4.466;2023-03-03T08:35:37;14.13;;;7.70;;
66272;SDS011;58450;52.150;4.466;2023-03-03T08:38:06;12.82;;;7.43;;
66272;SDS011;58450;52.150;4.466;2023-03-03T08:40:34;14.60;;;7.40;;
66272;SDS011;58450;52.150;4.466;2023-03-03T08:43:03;13.27;;;7.35;;
66272;SDS011;58450;52.150;4.466;2023-03-03T08:45:31;14.32;;;8.00;;
66272;SDS011;58450;52.150;4.466;2023-03-03T08:48:01;15.40;;;7.90;;
66272;SDS011;58450;52.150;4.466;2023-03-03T08:50:28;15.43;;;8.18;;
66272;SDS011;58450;52.150;4.466;2023-03-03T08:52:56;15.82;;;8.45;;
66272;SDS011;58450;52.150;4.466;2023-03-03T08:55:24;16.23;;;9.02;;
66272;SDS011;58450;52.150;4.466;2023-03-03T08:57:51;17.17;;;9.02;;
66272;SDS011;58450;52.150;4.466;2023-03-03T09:00:19;18.52;;;9.73;;
66272;SDS011;58450;52.150;4.466;2023-03-03T09:02:47;22.35;;;10.98;;
66272;SDS011;58450;52.150;4.466;2023-03-03T09:05:17;23.25;;;11.63;;
66272;SDS011;58450;52.150;4.466;2023-03-03T09:07:47;21.17;;;11.38;;
66272;SDS011;58450;52.150;4.466;2023-03-03T09:10:17;23.83;;;12.40;;
66272;SDS011;58450;52.150;4.466;2023-03-03T09:12:47;21.42;;;11.88;;
66272;SDS011;58450;52.150;4.466;2023-03-03T09:15:17;22.95;;;12.25;;
66272;SDS011;58450;52.150;4.466;2023-03-03T09:17:49;23.30;;;12.23;;
66272;SDS011;58450;52.150;4.466;2023-03-03T09:20:23;21.95;;;11.75;;
66272;SDS011;58450;52.150;4.466;2023-03-03T09:22:59;22.58;;;12.45;;
66272;SDS011;58450;52.150;4.466;2023-03-03T09:26:16;22.00;;;11.48;;
66272;SDS011;58450;52.150;4.466;2023-03-03T09:28:58;18.00;;;9.90;;
66272;SDS011;58450;52.150;4.466;2023-03-03T09:31:44;16.15;;;8.88;;
66272;SDS011;58450;52.150;4.466;2023-03-03T09:34:20;13.20;;;7.65;;
66272;SDS011;58450;52.150;4.466;2023-03-03T09:36:54;11.65;;;7.20;;
66272;SDS011;58450;52.150;4.466;2023-03-03T09:39:25;12.07;;;6.88;;
66272;SDS011;58450;52.150;4.466;2023-03-03T09:45:23;10.00;;;5.20;;
66272;SDS011;58450;52.150;4.466;2023-03-03T09:48:23;9.45;;;5.05;;
66272;SDS011;58450;52.150;4.466;2023-03-03T09:51:11;10.13;;;4.95;;
66272;SDS011;58450;52.150;4.466;2023-03-03T09:54:05;8.73;;;4.78;;
66272;SDS011;58450;52.150;4.466;2023-03-03T09:56:53;8.63;;;4.57;;
66272;SDS011;58450;52.150;4.466;2023-03-03T09:59:38;7.35;;;3.90;;
66272;SDS011;58450;52.150;4.466;2023-03-03T10:02:32;5.97;;;3.35;;
66272;SDS011;58450;52.150;4.466;2023-03-03T10:08:17;6.55;;;3.50;;
66272;SDS011;58450;52.150;4.466;2023-03-03T10:11:09;5.35;;;3.15;;
66272;SDS011;58450;52.150;4.466;2023-03-03T10:13:52;5.85;;;3.00;;
66272;SDS011;58450;52.150;4.466;2023-03-03T10:16:53;5.25;;;2.60;;
66272;SDS011;58450;52.150;4.466;2023-03-03T10:19:35;5.90;;;3.00;;
66272;SDS011;58450;52.150;4.466;2023-03-03T10:22:13;6.20;;;3.10;;
66272;SDS011;58450;52.150;4.466;2023-03-03T10:28:00;4.82;;;2.47;;
66272;SDS011;58450;52.150;4.466;2023-03-03T10:30:57;4.93;;;2.63;;
66272;SDS011;58450;52.150;4.466;2023-03-03T10:33:39;6.35;;;2.50;;
66272;SDS011;58450;52.150;4.466;2023-03-03T10:36:21;4.95;;;2.50;;
66272;SDS011;58450;52.150;4.466;2023-03-03T10:39:09;4.35;;;2.40;;
66272;SDS011;58450;52.150;4.466;2023-03-03T10:42:15;4.18;;;1.90;;
66272;SDS011;58450;52.150;4.466;2023-03-03T10:45:16;5.03;;;2.30;;
66272;SDS011;58450;52.150;4.466;2023-03-03T10:48:23;5.55;;;2.40;;
66272;SDS011;58450;52.150;4.466;2023-03-03T10:51:15;3.85;;;1.88;;
66272;SDS011;58450;52.150;4.466;2023-03-03T10:53:58;3.28;;;1.80;;
66272;SDS011;58450;52.150;4.466;2023-03-03T10:56:44;4.32;;;2.10;;
66272;SDS011;58450;52.150;4.466;2023-03-03T10:59:33;3.75;;;1.83;;
66272;SDS011;58450;52.150;4.466;2023-03-03T11:02:21;3.75;;;1.70;;
66272;SDS011;58450;52.150;4.466;2023-03-03T11:05:08;5.95;;;1.65;;
66272;SDS011;58450;52.150;4.466;2023-03-03T11:07:55;4.43;;;1.80;;
66272;SDS011;58450;52.150;4.466;2023-03-03T11:10:30;4.63;;;1.90;;
66272;SDS011;58450;52.150;4.466;2023-03-03T11:13:18;4.82;;;1.67;;
66272;SDS011;58450;52.150;4.466;2023-03-03T11:16:10;4.60;;;1.52;;
66272;SDS011;58450;52.150;4.466;2023-03-03T11:18:54;3.65;;;1.60;;
66272;SDS011;58450;52.150;4.466;2023-03-03T11:21:37;3.63;;;1.60;;
66272;SDS011;58450;52.150;4.466;2023-03-03T11:24:23;4.28;;;1.52;;
66272;SDS011;58450;52.150;4.466;2023-03-03T11:27:14;3.78;;;1.90;;
66272;SDS011;58450;52.150;4.466;2023-03-03T11:30:00;4.38;;;1.50;;
66272;SDS011;58450;52.150;4.466;2023-03-03T11:32:45;4.95;;;1.77;;
66272;SDS011;58450;52.150;4.466;2023-03-03T11:35:27;3.25;;;1.80;;
66272;SDS011;58450;52.150;4.466;2023-03-03T11:38:13;3.90;;;1.80;;
66272;SDS011;58450;52.150;4.466;2023-03-03T11:41:00;3.85;;;1.80;;
66272;SDS011;58450;52.150;4.466;2023-03-03T11:43:38;3.90;;;1.95;;
66272;SDS011;58450;52.150;4.466;2023-03-03T11:46:13;4.53;;;1.95;;
66272;SDS011;58450;52.150;4.466;2023-03-03T11:48:49;3.53;;;1.80;;
66272;SDS011;58450;52.150;4.466;2023-03-03T11:51:31;5.55;;;2.00;;
66272;SDS011;58450;52.150;4.466;2023-03-03T11:54:16;3.00;;;1.60;;
66272;SDS011;58450;52.150;4.466;2023-03-03T11:56:49;6.10;;;1.92;;
66272;SDS011;58450;52.150;4.466;2023-03-03T11:59:39;2.45;;;1.42;;
66272;SDS011;58450;52.150;4.466;2023-03-03T12:02:28;3.25;;;1.23;;
66272;SDS011;58450;52.150;4.466;2023-03-03T12:05:45;3.33;;;1.20;;
66272;SDS011;58450;52.150;4.466;2023-03-03T12:08:29;1.75;;;1.05;;
66272;SDS011;58450;52.150;4.466;2023-03-03T12:11:14;3.40;;;1.08;;
66272;SDS011;58450;52.150;4.466;2023-03-03T12:13:52;1.98;;;1.10;;
66272;SDS011;58450;52.150;4.466;2023-03-03T12:16:32;3.05;;;0.90;;
66272;SDS011;58450;52.150;4.466;2023-03-03T12:19:19;2.60;;;0.90;;
66272;SDS011;58450;52.150;4.466;2023-03-03T12:22:08;3.35;;;1.05;;
66272;SDS011;58450;52.150;4.466;2023-03-03T12:24:58;1.88;;;0.90;;
66272;SDS011;58450;52.150;4.466;2023-03-03T12:27:47;5.25;;;1.25;;
66272;SDS011;58450;52.150;4.466;2023-03-03T12:30:26;6.63;;;1.40;;
66272;SDS011;58450;52.150;4.466;2023-03-03T12:33:23;1.77;;;0.88;;
66272;SDS011;58450;52.150;4.466;2023-03-03T12:36:09;1.75;;;1.00;;
66272;SDS011;58450;52.150;4.466;2023-03-03T12:39:06;1.95;;;0.75;;
66272;SDS011;58450;52.150;4.466;2023-03-03T12:41:49;3.85;;;0.90;;
66272;SDS011;58450;52.150;4.466;2023-03-03T12:44:28;4.30;;;1.02;;
66272;SDS011;58450;52.150;4.466;2023-03-03T12:47:08;3.00;;;1.02;;
66272;SDS011;58450;52.150;4.466;2023-03-03T12:49:52;2.10;;;1.20;;
66272;SDS011;58450;52.150;4.466;2023-03-03T12:52:33;3.15;;;1.20;;
66272;SDS011;58450;52.150;4.466;2023-03-03T12:55:20;2.65;;;1.00;;
66272;SDS011;58450;52.150;4.466;2023-03-03T12:58:06;1.40;;;0.85;;
66272;SDS011;58450;52.150;4.466;2023-03-03T13:00:50;2.95;;;0.90;;
66272;SDS011;58450;52.150;4.466;2023-03-03T13:03:35;2.15;;;1.20;;
66272;SDS011;58450;52.150;4.466;2023-03-03T13:06:14;4.68;;;1.10;;
66272;SDS011;58450;52.150;4.466;2023-03-03T13:08:57;3.40;;;1.10;;
66272;SDS011;58450;52.150;4.466;2023-03-03T13:14:58;3.40;;;0.95;;
66272;SDS011;58450;52.150;4.466;2023-03-03T13:17:37;3.45;;;0.77;;
66272;SDS011;58450;52.150;4.466;2023-03-03T13:20:21;2.58;;;0.98;;
66272;SDS011;58450;52.150;4.466;2023-03-03T13:23:03;2.35;;;0.80;;
66272;SDS011;58450;52.150;4.466;2023-03-03T13:25:40;3.22;;;0.82;;
66272;SDS011;58450;52.150;4.466;2023-03-03T13:28:21;3.85;;;0.98;;
66272;SDS011;58450;52.150;4.466;2023-03-03T13:31:02;3.78;;;1.20;;
66272;SDS011;58450;52.150;4.466;2023-03-03T13:33:37;4.03;;;1.17;;
66272;SDS011;58450;52.150;4.466;2023-03-03T13:36:16;2.80;;;1.00;;
66272;SDS011;58450;52.150;4.466;2023-03-03T13:38:45;2.72;;;0.93;;
66272;SDS011;58450;52.150;4.466;2023-03-03T13:41:19;2.38;;;1.10;;
66272;SDS011;58450;52.150;4.466;2023-03-03T13:43:56;2.22;;;0.90;;
66272;SDS011;58450;52.150;4.466;2023-03-03T13:46:34;5.15;;;1.13;;
66272;SDS011;58450;52.150;4.466;2023-03-03T13:49:13;3.42;;;1.10;;
66272;SDS011;58450;52.150;4.466;2023-03-03T13:52:00;4.80;;;1.48;;
66272;SDS011;58450;52.150;4.466;2023-03-03T13:54:47;4.57;;;1.38;;
66272;SDS011;58450;52.150;4.466;2023-03-03T13:57:34;2.25;;;1.20;;
66272;SDS011;58450;52.150;4.466;2023-03-03T14:00:26;3.80;;;1.45;;
66272;SDS011;58450;52.150;4.466;2023-03-03T14:03:12;3.65;;;1.13;;
66272;SDS011;58450;52.150;4.466;2023-03-03T14:05:55;2.83;;;1.25;;
66272;SDS011;58450;52.150;4.466;2023-03-03T14:08:34;4.70;;;1.50;;
66272;SDS011;58450;52.150;4.466;2023-03-03T14:11:21;3.00;;;1.30;;
66272;SDS011;58450;52.150;4.466;2023-03-03T14:13:58;3.78;;;1.20;;
66272;SDS011;58450;52.150;4.466;2023-03-03T14:16:39;2.20;;;1.05;;
66272;SDS011;58450;52.150;4.466;2023-03-03T14:19:18;4.18;;;1.10;;
66272;SDS011;58450;52.150;4.466;2023-03-03T14:21:56;2.65;;;0.98;;
66272;SDS011;58450;52.150;4.466;2023-03-03T14:27:38;2.13;;;0.80;;
66272;SDS011;58450;52.150;4.466;2023-03-03T14:30:29;3.08;;;0.73;;
66272;SDS011;58450;52.150;4.466;2023-03-03T14:33:18;3.03;;;0.90;;
66272;SDS011;58450;52.150;4.466;2023-03-03T14:36:12;2.22;;;0.73;;
66272;SDS011;58450;52.150;4.466;2023-03-03T14:38:44;4.22;;;0.80;;
66272;SDS011;58450;52.150;4.466;2023-03-03T14:41:17;2.55;;;0.70;;
66272;SDS011;58450;52.150;4.466;2023-03-03T14:43:58;2.25;;;0.70;;
66272;SDS011;58450;52.150;4.466;2023-03-03T14:46:29;2.10;;;0.77;;
66272;SDS011;58450;52.150;4.466;2023-03-03T14:49:02;0.77;;;0.70;;
66272;SDS011;58450;52.150;4.466;2023-03-03T14:51:38;3.67;;;1.25;;
66272;SDS011;58450;52.150;4.466;2023-03-03T14:54:21;4.60;;;1.20;;
66272;SDS011;58450;52.150;4.466;2023-03-03T14:59:33;1.23;;;0.90;;
66272;SDS011;58450;52.150;4.466;2023-03-03T15:02:07;1.92;;;1.15;;
66272;SDS011;58450;52.150;4.466;2023-03-03T15:05:09;2.67;;;1.25;;
66272;SDS011;58450;52.150;4.466;2023-03-03T15:07:46;2.65;;;1.17;;
66272;SDS011;58450;52.150;4.466;2023-03-03T15:10:26;2.08;;;1.42;;
66272;SDS011;58450;52.150;4.466;2023-03-03T15:12:57;3.97;;;1.75;;
66272;SDS011;58450;52.150;4.466;2023-03-03T15:15:42;3.58;;;2.08;;
66272;SDS011;58450;52.150;4.466;2023-03-03T15:18:18;2.58;;;1.90;;
66272;SDS011;58450;52.150;4.466;2023-03-03T15:20:47;3.65;;;1.90;;
66272;SDS011;58450;52.150;4.466;2023-03-03T15:23:35;2.00;;;1.30;;
66272;SDS011;58450;52.150;4.466;2023-03-03T15:26:19;1.75;;;1.10;;
66272;SDS011;58450;52.150;4.466;2023-03-03T15:28:58;1.63;;;0.85;;
66272;SDS011;58450;52.150;4.466;2023-03-03T15:31:38;2.83;;;1.00;;
66272;SDS011;58450;52.150;4.466;2023-03-03T15:34:21;1.95;;;0.77;;
66272;SDS011;58450;52.150;4.466;2023-03-03T15:37:02;4.05;;;0.95;;
66272;SDS011;58450;52.150;4.466;2023-03-03T15:39:50;2.67;;;0.70;;
66272;SDS011;58450;52.150;4.466;2023-03-03T15:42:30;3.17;;;0.80;;
66272;SDS011;58450;52.150;4.466;2023-03-03T15:45:06;2.70;;;0.80;;
66272;SDS011;58450;52.150;4.466;2023-03-03T15:47:57;2.55;;;0.73;;
66272;SDS011;58450;52.150;4.466;2023-03-03T15:50:46;2.38;;;0.70;;
66272;SDS011;58450;52.150;4.466;2023-03-03T15:53:37;4.38;;;0.90;;
66272;SDS011;58450;52.150;4.466;2023-03-03T15:56:40;4.38;;;0.90;;
66272;SDS011;58450;52.150;4.466;2023-03-03T15:59:20;3.33;;;0.80;;
66272;SDS011;58450;52.150;4.466;2023-03-03T16:02:16;4.43;;;1.02;;